sensor_id;sensor_type;location;lat;lon;timestamp;P1;durP1;ratioP1;P2;durP2;ratioP2
26435;SDS011;15351;52.408;16.826;2023-07-08T00:05:29;12.00;;;8.50;;
26435;SDS011;15351;52.408;16.826;2023-07-08T00:13:20;11.10;;;8.50;;
26435;SDS011;15351;52.408;16.826;2023-07-08T00:17:10;12.60;;;8.50;;
26435;SDS011;15351;52.408;16.826;2023-07-08T00:20:09;12.20;;;8.40;;
26435;SDS011;15351;52.408;16.826;2023-07-08T00:26:41;10.10;;;7.90;;
26435;SDS011;15351;52.408;16.826;2023-07-08T00:30:33;13.90;;;8.30;;
26435;SDS011;15351;52.408;16.826;2023-07-08T00:37:41;12.90;;;8.10;;
26435;SDS011;15351;52.408;16.826;2023-07-08T00:44:00;11.90;;;8.00;;
26435;SDS011;15351;52.408;16.826;2023-07-08T00:50:30;11.90;;;7.70;;
26435;SDS011;15351;52.408;16.826;2023-07-08T01:00:40;11.50;;;8.10;;
26435;SDS011;15351;52.408;16.826;2023-07-08T01:09:00;10.00;;;7.50;;
26435;SDS011;15351;52.408;16.826;2023-07-08T01:12:40;13.00;;;7.70;;
26435;SDS011;15351;52.408;16.826;2023-07-08T01:16:14;11.50;;;7.80;;
26435;SDS011;15351;52.408;16.826;2023-07-08T01:19:54;11.80;;;7.40;;
26435;SDS011;15351;52.408;16.826;2023-07-08T01:31:05;11.00;;;7.60;;
26435;SDS011;15351;52.408;16.826;2023-07-08T01:38:09;11.40;;;7.90;;
26435;SDS011;15351;52.408;16.826;2023-07-08T01:41:32;11.90;;;7.80;;
26435;SDS011;15351;52.408;16.826;2023-07-08T01:47:36;9.90;;;7.30;;
26435;SDS011;15351;52.408;16.826;2023-07-08T01:51:10;13.20;;;8.00;;
26435;SDS011;15351;52.408;16.826;2023-07-08T01:54:23;9.40;;;7.50;;
26435;SDS011;15351;52.408;16.826;2023-07-08T02:01:27;12.40;;;7.50;;
26435;SDS011;15351;52.408;16.826;2023-07-08T02:04:40;11.10;;;7.80;;
26435;SDS011;15351;52.408;16.826;2023-07-08T02:11:14;11.40;;;7.60;;
26435;SDS011;15351;52.408;16.826;2023-07-08T02:20:39;13.40;;;7.50;;
26435;SDS011;15351;52.408;16.826;2023-07-08T02:24:02;13.40;;;7.70;;
26435;SDS011;15351;52.408;16.826;2023-07-08T02:27:33;11.00;;;7.10;;
26435;SDS011;15351;52.408;16.826;2023-07-08T02:33:37;13.00;;;7.60;;
26435;SDS011;15351;52.408;16.826;2023-07-08T02:36:42;12.40;;;7.40;;
26435;SDS011;15351;52.408;16.826;2023-07-08T02:39:17;9.60;;;7.30;;
26435;SDS011;15351;52.408;16.826;2023-07-08T02:41:53;9.30;;;6.70;;
26435;SDS011;15351;52.408;16.826;2023-07-08T02:44:34;12.40;;;7.20;;
26435;SDS011;15351;52.408;16.826;2023-07-08T02:47:22;13.80;;;7.50;;
26435;SDS011;15351;52.408;16.826;2023-07-08T02:52:37;12.50;;;6.80;;
26435;SDS011;15351;52.408;16.826;2023-07-08T02:55:03;10.70;;;6.50;;
26435;SDS011;15351;52.408;16.826;2023-07-08T02:57:34;9.50;;;6.20;;
26435;SDS011;15351;52.408;16.826;2023-07-08T03:00:07;8.40;;;6.60;;
26435;SDS011;15351;52.408;16.826;2023-07-08T03:02:42;8.50;;;6.60;;
26435;SDS011;15351;52.408;16.826;2023-07-08T03:05:17;9.00;;;6.30;;
26435;SDS011;15351;52.408;16.826;2023-07-08T03:07:49;7.50;;;6.10;;
26435;SDS011;15351;52.408;16.826;2023-07-08T03:10:23;10.60;;;6.20;;
26435;SDS011;15351;52.408;16.826;2023-07-08T03:12:53;11.70;;;6.60;;
26435;SDS011;15351;52.408;16.826;2023-07-08T03:15:20;10.00;;;6.30;;
26435;SDS011;15351;52.408;16.826;2023-07-08T03:17:57;9.50;;;6.20;;
26435;SDS011;15351;52.408;16.826;2023-07-08T03:20:33;10.60;;;6.20;;
26435;SDS011;15351;52.408;16.826;2023-07-08T03:23:44;10.00;;;6.10;;
26435;SDS011;15351;52.408;16.826;2023-07-08T03:26:48;11.00;;;6.40;;
26435;SDS011;15351;52.408;16.826;2023-07-08T03:29:39;9.20;;;6.10;;
26435;SDS011;15351;52.408;16.826;2023-07-08T03:32:18;8.20;;;6.00;;
26435;SDS011;15351;52.408;16.826;2023-07-08T03:35:09;7.30;;;5.90;;
26435;SDS011;15351;52.408;16.826;2023-07-08T03:37:38;9.60;;;5.90;;
26435;SDS011;15351;52.408;16.826;2023-07-08T03:40:09;9.30;;;6.50;;
26435;SDS011;15351;52.408;16.826;2023-07-08T03:42:44;10.40;;;6.60;;
26435;SDS011;15351;52.408;16.826;2023-07-08T03:45:13;10.00;;;6.50;;
26435;SDS011;15351;52.408;16.826;2023-07-08T03:47:51;8.40;;;6.10;;
26435;SDS011;15351;52.408;16.826;2023-07-08T03:50:33;8.10;;;6.30;;
26435;SDS011;15351;52.408;16.826;2023-07-08T03:53:08;8.80;;;6.90;;
26435;SDS011;15351;52.408;16.826;2023-07-08T03:56:03;8.40;;;6.50;;
26435;SDS011;15351;52.408;16.826;2023-07-08T03:58:39;8.20;;;6.30;;
26435;SDS011;15351;52.408;16.826;2023-07-08T04:01:23;7.10;;;6.30;;
26435;SDS011;15351;52.408;16.826;2023-07-08T04:04:18;10.70;;;6.40;;
26435;SDS011;15351;52.408;16.826;2023-07-08T04:06:50;9.80;;;6.40;;
26435;SDS011;15351;52.408;16.826;2023-07-08T04:09:59;9.80;;;6.60;;
26435;SDS011;15351;52.408;16.826;2023-07-08T04:12:53;11.00;;;6.40;;
26435;SDS011;15351;52.408;16.826;2023-07-08T04:15:22;10.60;;;6.80;;
26435;SDS011;15351;52.408;16.826;2023-07-08T04:18:07;10.00;;;7.20;;
26435;SDS011;15351;52.408;16.826;2023-07-08T04:20:34;13.60;;;9.20;;
26435;SDS011;15351;52.408;16.826;2023-07-08T04:23:56;14.50;;;11.40;;
26435;SDS011;15351;52.408;16.826;2023-07-08T04:26:38;13.10;;;9.30;;
26435;SDS011;15351;52.408;16.826;2023-07-08T04:32:44;11.60;;;8.60;;
26435;SDS011;15351;52.408;16.826;2023-07-08T04:35:34;12.00;;;8.20;;
26435;SDS011;15351;52.408;16.826;2023-07-08T04:38:37;10.90;;;8.10;;
26435;SDS011;15351;52.408;16.826;2023-07-08T04:41:14;12.70;;;10.20;;
26435;SDS011;15351;52.408;16.826;2023-07-08T04:43:48;14.00;;;10.30;;
26435;SDS011;15351;52.408;16.826;2023-07-08T04:46:45;11.00;;;9.10;;
26435;SDS011;15351;52.408;16.826;2023-07-08T04:50:09;15.60;;;10.10;;
26435;SDS011;15351;52.408;16.826;2023-07-08T04:52:43;12.10;;;8.30;;
26435;SDS011;15351;52.408;16.826;2023-07-08T04:56:15;10.50;;;7.50;;
26435;SDS011;15351;52.408;16.826;2023-07-08T05:25:35;10.20;;;6.20;;
26435;SDS011;15351;52.408;16.826;2023-07-08T05:29:27;10.60;;;6.00;;
26435;SDS011;15351;52.408;16.826;2023-07-08T05:41:17;8.70;;;5.50;;
26435;SDS011;15351;52.408;16.826;2023-07-08T05:48:29;8.90;;;5.50;;
26435;SDS011;15351;52.408;16.826;2023-07-08T05:55:42;11.00;;;5.20;;
26435;SDS011;15351;52.408;16.826;2023-07-08T06:03:03;7.00;;;4.80;;
26435;SDS011;15351;52.408;16.826;2023-07-08T06:09:25;6.30;;;4.50;;
26435;SDS011;15351;52.408;16.826;2023-07-08T06:12:59;8.30;;;4.80;;
26435;SDS011;15351;52.408;16.826;2023-07-08T06:20:34;7.80;;;4.70;;
26435;SDS011;15351;52.408;16.826;2023-07-08T06:23:58;7.00;;;4.40;;
26435;SDS011;15351;52.408;16.826;2023-07-08T06:27:20;9.20;;;4.60;;
26435;SDS011;15351;52.408;16.826;2023-07-08T06:30:52;11.00;;;4.50;;
26435;SDS011;15351;52.408;16.826;2023-07-08T06:34:20;7.80;;;4.30;;
26435;SDS011;15351;52.408;16.826;2023-07-08T06:37:43;9.60;;;4.50;;
26435;SDS011;15351;52.408;16.826;2023-07-08T06:41:09;7.80;;;4.10;;
26435;SDS011;15351;52.408;16.826;2023-07-08T06:43:46;5.80;;;3.70;;
26435;SDS011;15351;52.408;16.826;2023-07-08T06:47:44;8.10;;;3.80;;
26435;SDS011;15351;52.408;16.826;2023-07-08T06:58:06;7.20;;;3.80;;
26435;SDS011;15351;52.408;16.826;2023-07-08T07:01:41;7.50;;;3.90;;
26435;SDS011;15351;52.408;16.826;2023-07-08T07:08:26;4.70;;;3.20;;
26435;SDS011;15351;52.408;16.826;2023-07-08T07:11:16;4.60;;;3.00;;
26435;SDS011;15351;52.408;16.826;2023-07-08T07:21:23;4.60;;;3.00;;
26435;SDS011;15351;52.408;16.826;2023-07-08T07:24:36;4.50;;;3.00;;
26435;SDS011;15351;52.408;16.826;2023-07-08T07:27:45;4.80;;;3.20;;
26435;SDS011;15351;52.408;16.826;2023-07-08T07:31:13;6.70;;;2.80;;
26435;SDS011;15351;52.408;16.826;2023-07-08T07:36:55;6.70;;;2.80;;
26435;SDS011;15351;52.408;16.826;2023-07-08T07:39:48;5.60;;;2.90;;
26435;SDS011;15351;52.408;16.826;2023-07-08T07:43:11;6.40;;;2.90;;
26435;SDS011;15351;52.408;16.826;2023-07-08T07:50:12;6.40;;;2.80;;
26435;SDS011;15351;52.408;16.826;2023-07-08T08:07:16;7.40;;;3.00;;
26435;SDS011;15351;52.408;16.826;2023-07-08T08:13:37;4.60;;;2.50;;
26435;SDS011;15351;52.408;16.826;2023-07-08T08:17:29;4.60;;;2.70;;
26435;SDS011;15351;52.408;16.826;2023-07-08T08:27:26;4.80;;;2.90;;
26435;SDS011;15351;52.408;16.826;2023-07-08T08:29:56;3.40;;;2.70;;
26435;SDS011;15351;52.408;16.826;2023-07-08T08:32:33;4.60;;;2.70;;
26435;SDS011;15351;52.408;16.826;2023-07-08T08:35:03;4.90;;;3.10;;
26435;SDS011;15351;52.408;16.826;2023-07-08T08:38:04;6.20;;;3.00;;
26435;SDS011;15351;52.408;16.826;2023-07-08T08:40:33;4.20;;;2.80;;
26435;SDS011;15351;52.408;16.826;2023-07-08T08:43:05;4.00;;;2.80;;
26435;SDS011;15351;52.408;16.826;2023-07-08T08:49:40;5.50;;;2.80;;
26435;SDS011;15351;52.408;16.826;2023-07-08T08:52:22;5.20;;;2.70;;
26435;SDS011;15351;52.408;16.826;2023-07-08T08:54:48;4.40;;;2.60;;
26435;SDS011;15351;52.408;16.826;2023-07-08T11:48:19;2.70;;;2.30;;
26435;SDS011;15351;52.408;16.826;2023-07-08T11:51:09;4.20;;;2.40;;
26435;SDS011;15351;52.408;16.826;2023-07-08T12:09:40;4.40;;;2.40;;
26435;SDS011;15351;52.408;16.826;2023-07-08T12:16:55;3.60;;;2.30;;
26435;SDS011;15351;52.408;16.826;2023-07-08T12:19:27;3.60;;;2.30;;
26435;SDS011;15351;52.408;16.826;2023-07-08T12:22:08;3.30;;;2.20;;
26435;SDS011;15351;52.408;16.826;2023-07-08T12:24:35;3.70;;;2.50;;
26435;SDS011;15351;52.408;16.826;2023-07-08T12:27:02;4.30;;;2.50;;
26435;SDS011;15351;52.408;16.826;2023-07-08T12:29:53;3.30;;;2.40;;
26435;SDS011;15351;52.408;16.826;2023-07-08T12:32:27;2.60;;;2.40;;
26435;SDS011;15351;52.408;16.826;2023-07-08T12:34:54;3.20;;;2.40;;
26435;SDS011;15351;52.408;16.826;2023-07-08T12:37:25;5.60;;;2.70;;
26435;SDS011;15351;52.408;16.826;2023-07-08T12:39:57;4.40;;;2.30;;
26435;SDS011;15351;52.408;16.826;2023-07-08T12:42:40;3.70;;;2.50;;
26435;SDS011;15351;52.408;16.826;2023-07-08T12:48:02;5.70;;;2.70;;
26435;SDS011;15351;52.408;16.826;2023-07-08T12:53:27;3.30;;;2.30;;
26435;SDS011;15351;52.408;16.826;2023-07-08T12:55:54;3.60;;;2.50;;
26435;SDS011;15351;52.408;16.826;2023-07-08T12:58:24;4.70;;;2.20;;
26435;SDS011;15351;52.408;16.826;2023-07-08T13:00:54;2.80;;;2.50;;
26435;SDS011;15351;52.408;16.826;2023-07-08T13:03:23;2.70;;;2.30;;
26435;SDS011;15351;52.408;16.826;2023-07-08T13:05:52;3.30;;;2.50;;
26435;SDS011;15351;52.408;16.826;2023-07-08T13:08:56;4.80;;;2.50;;
26435;SDS011;15351;52.408;16.826;2023-07-08T13:11:49;2.90;;;2.40;;
26435;SDS011;15351;52.408;16.826;2023-07-08T13:15:10;2.80;;;2.50;;
26435;SDS011;15351;52.408;16.826;2023-07-08T13:17:53;5.50;;;2.60;;
26435;SDS011;15351;52.408;16.826;2023-07-08T13:20:20;3.80;;;2.50;;
26435;SDS011;15351;52.408;16.826;2023-07-08T13:23:15;3.70;;;2.50;;
26435;SDS011;15351;52.408;16.826;2023-07-08T13:25:42;3.40;;;2.60;;
26435;SDS011;15351;52.408;16.826;2023-07-08T13:28:42;4.10;;;2.50;;
26435;SDS011;15351;52.408;16.826;2023-07-08T13:31:31;3.20;;;2.70;;
26435;SDS011;15351;52.408;16.826;2023-07-08T13:34:05;4.10;;;2.70;;
26435;SDS011;15351;52.408;16.826;2023-07-08T13:36:41;4.40;;;2.60;;
26435;SDS011;15351;52.408;16.826;2023-07-08T14:00:08;4.40;;;2.50;;
26435;SDS011;15351;52.408;16.826;2023-07-08T14:04:19;4.00;;;2.70;;
26435;SDS011;15351;52.408;16.826;2023-07-08T14:07:46;3.80;;;2.50;;
26435;SDS011;15351;52.408;16.826;2023-07-08T14:33:37;5.30;;;2.70;;
26435;SDS011;15351;52.408;16.826;2023-07-08T14:36:27;3.10;;;2.50;;
26435;SDS011;15351;52.408;16.826;2023-07-08T14:38:54;3.70;;;2.50;;
26435;SDS011;15351;52.408;16.826;2023-07-08T14:41:26;4.90;;;2.60;;
26435;SDS011;15351;52.408;16.826;2023-07-08T14:43:57;3.80;;;2.70;;
26435;SDS011;15351;52.408;16.826;2023-07-08T14:46:24;2.60;;;2.40;;
26435;SDS011;15351;52.408;16.826;2023-07-08T14:48:58;4.90;;;2.80;;
26435;SDS011;15351;52.408;16.826;2023-07-08T14:51:25;3.40;;;2.80;;
26435;SDS011;15351;52.408;16.826;2023-07-08T14:53:51;4.10;;;2.80;;
26435;SDS011;15351;52.408;16.826;2023-07-08T14:56:24;3.10;;;2.80;;
26435;SDS011;15351;52.408;16.826;2023-07-08T14:58:51;3.00;;;2.40;;
26435;SDS011;15351;52.408;16.826;2023-07-08T15:01:18;3.30;;;2.70;;
26435;SDS011;15351;52.408;16.826;2023-07-08T15:03:46;5.80;;;2.70;;
26435;SDS011;15351;52.408;16.826;2023-07-08T15:06:12;2.60;;;2.40;;
26435;SDS011;15351;52.408;16.826;2023-07-08T15:08:38;4.20;;;2.70;;
26435;SDS011;15351;52.408;16.826;2023-07-08T15:11:05;5.20;;;2.70;;
26435;SDS011;15351;52.408;16.826;2023-07-08T15:13:32;2.90;;;2.60;;
26435;SDS011;15351;52.408;16.826;2023-07-08T15:16:00;4.30;;;2.60;;
26435;SDS011;15351;52.408;16.826;2023-07-08T15:18:47;2.90;;;2.40;;
26435;SDS011;15351;52.408;16.826;2023-07-08T15:21:22;3.30;;;2.60;;
26435;SDS011;15351;52.408;16.826;2023-07-08T15:24:00;3.30;;;2.50;;
26435;SDS011;15351;52.408;16.826;2023-07-08T15:26:28;3.20;;;2.70;;
26435;SDS011;15351;52.408;16.826;2023-07-08T15:29:06;4.30;;;2.60;;
26435;SDS011;15351;52.408;16.826;2023-07-08T15:31:40;3.50;;;2.40;;
26435;SDS011;15351;52.408;16.826;2023-07-08T15:34:13;3.60;;;2.80;;
26435;SDS011;15351;52.408;16.826;2023-07-08T15:36:44;4.10;;;2.50;;
26435;SDS011;15351;52.408;16.826;2023-07-08T15:39:14;2.70;;;2.50;;
26435;SDS011;15351;52.408;16.826;2023-07-08T15:41:41;5.00;;;3.10;;
26435;SDS011;15351;52.408;16.826;2023-07-08T15:44:12;3.40;;;3.10;;
26435;SDS011;15351;52.408;16.826;2023-07-08T15:46:43;3.10;;;2.80;;
26435;SDS011;15351;52.408;16.826;2023-07-08T15:49:15;3.60;;;2.80;;
26435;SDS011;15351;52.408;16.826;2023-07-08T15:51:46;4.00;;;2.60;;
26435;SDS011;15351;52.408;16.826;2023-07-08T15:54:33;4.10;;;2.50;;
26435;SDS011;15351;52.408;16.826;2023-07-08T15:57:02;3.90;;;2.60;;
26435;SDS011;15351;52.408;16.826;2023-07-08T15:59:34;3.20;;;2.50;;
26435;SDS011;15351;52.408;16.826;2023-07-08T16:02:02;3.30;;;2.60;;
26435;SDS011;15351;52.408;16.826;2023-07-08T16:04:39;3.80;;;2.80;;
26435;SDS011;15351;52.408;16.826;2023-07-08T16:07:08;3.40;;;2.80;;
26435;SDS011;15351;52.408;16.826;2023-07-08T16:09:35;3.00;;;2.60;;
26435;SDS011;15351;52.408;16.826;2023-07-08T16:12:02;6.40;;;2.80;;
26435;SDS011;15351;52.408;16.826;2023-07-08T16:14:30;3.30;;;2.80;;
26435;SDS011;15351;52.408;16.826;2023-07-08T16:16:57;3.40;;;2.70;;
26435;SDS011;15351;52.408;16.826;2023-07-08T16:19:26;3.50;;;2.80;;
26435;SDS011;15351;52.408;16.826;2023-07-08T16:26:19;4.40;;;3.00;;
26435;SDS011;15351;52.408;16.826;2023-07-08T16:29:37;4.40;;;3.00;;
26435;SDS011;15351;52.408;16.826;2023-07-08T16:33:09;4.20;;;3.40;;
26435;SDS011;15351;52.408;16.826;2023-07-08T16:35:52;4.30;;;2.90;;
26435;SDS011;15351;52.408;16.826;2023-07-08T16:38:19;4.50;;;3.20;;
26435;SDS011;15351;52.408;16.826;2023-07-08T16:40:48;5.40;;;3.70;;
26435;SDS011;15351;52.408;16.826;2023-07-08T16:43:29;4.10;;;3.70;;
26435;SDS011;15351;52.408;16.826;2023-07-08T16:45:58;4.50;;;3.10;;
26435;SDS011;15351;52.408;16.826;2023-07-08T16:48:24;5.30;;;3.20;;
26435;SDS011;15351;52.408;16.826;2023-07-08T16:51:22;3.70;;;3.10;;
26435;SDS011;15351;52.408;16.826;2023-07-08T16:53:59;3.30;;;2.90;;
26435;SDS011;15351;52.408;16.826;2023-07-08T16:56:35;4.90;;;3.40;;
26435;SDS011;15351;52.408;16.826;2023-07-08T16:59:03;5.10;;;3.00;;
26435;SDS011;15351;52.408;16.826;2023-07-08T17:01:31;4.20;;;3.30;;
26435;SDS011;15351;52.408;16.826;2023-07-08T17:03:57;3.60;;;3.30;;
26435;SDS011;15351;52.408;16.826;2023-07-08T17:06:24;4.90;;;3.10;;
26435;SDS011;15351;52.408;16.826;2023-07-08T17:08:50;5.40;;;3.10;;
26435;SDS011;15351;52.408;16.826;2023-07-08T17:11:19;5.60;;;3.10;;
26435;SDS011;15351;52.408;16.826;2023-07-08T17:14:05;5.50;;;3.50;;
26435;SDS011;15351;52.408;16.826;2023-07-08T17:16:36;3.90;;;3.10;;
26435;SDS011;15351;52.408;16.826;2023-07-08T17:19:04;3.90;;;3.10;;
26435;SDS011;15351;52.408;16.826;2023-07-08T17:21:34;5.90;;;3.60;;
26435;SDS011;15351;52.408;16.826;2023-07-08T17:28:49;4.30;;;3.40;;
26435;SDS011;15351;52.408;16.826;2023-07-08T17:35:02;4.40;;;3.20;;
26435;SDS011;15351;52.408;16.826;2023-07-08T17:37:58;4.00;;;3.50;;
26435;SDS011;15351;52.408;16.826;2023-07-08T17:40:26;4.90;;;3.40;;
26435;SDS011;15351;52.408;16.826;2023-07-08T17:57:19;4.90;;;3.30;;
26435;SDS011;15351;52.408;16.826;2023-07-08T18:00:51;4.80;;;3.40;;
26435;SDS011;15351;52.408;16.826;2023-07-08T18:04:11;4.60;;;3.20;;
26435;SDS011;15351;52.408;16.826;2023-07-08T18:07:22;4.50;;;3.50;;
26435;SDS011;15351;52.408;16.826;2023-07-08T18:13:50;5.40;;;3.90;;
26435;SDS011;15351;52.408;16.826;2023-07-08T18:16:28;5.70;;;4.00;;
26435;SDS011;15351;52.408;16.826;2023-07-08T18:20:04;5.20;;;3.90;;
26435;SDS011;15351;52.408;16.826;2023-07-08T18:23:17;6.90;;;3.50;;
26435;SDS011;15351;52.408;16.826;2023-07-08T18:31:15;5.60;;;3.30;;
26435;SDS011;15351;52.408;16.826;2023-07-08T18:34:04;5.90;;;3.60;;
26435;SDS011;15351;52.408;16.826;2023-07-08T18:36:33;5.30;;;3.40;;
26435;SDS011;15351;52.408;16.826;2023-07-08T18:39:10;7.40;;;3.70;;
26435;SDS011;15351;52.408;16.826;2023-07-08T18:41:55;6.10;;;3.60;;
26435;SDS011;15351;52.408;16.826;2023-07-08T18:44:40;4.20;;;3.60;;
26435;SDS011;15351;52.408;16.826;2023-07-08T18:47:09;4.80;;;3.60;;
26435;SDS011;15351;52.408;16.826;2023-07-08T18:49:37;6.70;;;3.70;;
26435;SDS011;15351;52.408;16.826;2023-07-08T18:52:25;4.10;;;3.40;;
26435;SDS011;15351;52.408;16.826;2023-07-08T18:54:54;6.00;;;3.80;;
26435;SDS011;15351;52.408;16.826;2023-07-08T18:57:21;6.80;;;4.30;;
26435;SDS011;15351;52.408;16.826;2023-07-08T18:59:52;7.40;;;4.20;;
26435;SDS011;15351;52.408;16.826;2023-07-08T19:02:30;4.70;;;4.10;;
26435;SDS011;15351;52.408;16.826;2023-07-08T19:05:02;5.30;;;4.20;;
26435;SDS011;15351;52.408;16.826;2023-07-08T19:07:29;5.70;;;4.10;;
26435;SDS011;15351;52.408;16.826;2023-07-08T19:09:58;6.50;;;4.40;;
26435;SDS011;15351;52.408;16.826;2023-07-08T19:12:45;7.50;;;4.90;;
26435;SDS011;15351;52.408;16.826;2023-07-08T19:15:37;6.30;;;5.00;;
26435;SDS011;15351;52.408;16.826;2023-07-08T19:18:09;6.20;;;4.50;;
26435;SDS011;15351;52.408;16.826;2023-07-08T19:20:59;7.20;;;4.50;;
26435;SDS011;15351;52.408;16.826;2023-07-08T19:36:17;6.60;;;4.00;;
26435;SDS011;15351;52.408;16.826;2023-07-08T19:39:09;6.60;;;3.90;;
26435;SDS011;15351;52.408;16.826;2023-07-08T19:41:36;5.90;;;4.10;;
26435;SDS011;15351;52.408;16.826;2023-07-08T19:44:09;9.10;;;4.60;;
26435;SDS011;15351;52.408;16.826;2023-07-08T19:46:40;7.80;;;4.40;;
26435;SDS011;15351;52.408;16.826;2023-07-08T19:49:11;9.90;;;4.50;;
26435;SDS011;15351;52.408;16.826;2023-07-08T19:51:37;9.80;;;4.80;;
26435;SDS011;15351;52.408;16.826;2023-07-08T19:54:04;8.40;;;4.50;;
26435;SDS011;15351;52.408;16.826;2023-07-08T19:56:30;6.20;;;4.50;;
26435;SDS011;15351;52.408;16.826;2023-07-08T19:58:57;10.00;;;4.50;;
26435;SDS011;15351;52.408;16.826;2023-07-08T20:01:27;7.10;;;4.40;;
26435;SDS011;15351;52.408;16.826;2023-07-08T20:03:57;7.70;;;4.50;;
26435;SDS011;15351;52.408;16.826;2023-07-08T20:06:25;7.30;;;4.50;;
26435;SDS011;15351;52.408;16.826;2023-07-08T20:08:52;8.20;;;4.40;;
26435;SDS011;15351;52.408;16.826;2023-07-08T20:11:21;6.80;;;4.10;;
26435;SDS011;15351;52.408;16.826;2023-07-08T20:13:48;5.90;;;4.30;;
26435;SDS011;15351;52.408;16.826;2023-07-08T20:16:19;6.40;;;4.10;;
26435;SDS011;15351;52.408;16.826;2023-07-08T20:18:49;6.70;;;4.10;;
26435;SDS011;15351;52.408;16.826;2023-07-08T20:21:17;7.20;;;4.10;;
26435;SDS011;15351;52.408;16.826;2023-07-08T20:23:44;5.70;;;4.20;;
26435;SDS011;15351;52.408;16.826;2023-07-08T20:29:20;5.80;;;3.80;;
26435;SDS011;15351;52.408;16.826;2023-07-08T20:31:47;5.10;;;3.90;;
26435;SDS011;15351;52.408;16.826;2023-07-08T20:34:15;6.50;;;4.20;;
26435;SDS011;15351;52.408;16.826;2023-07-08T20:36:46;6.40;;;4.20;;
26435;SDS011;15351;52.408;16.826;2023-07-08T20:39:19;7.00;;;4.20;;
26435;SDS011;15351;52.408;16.826;2023-07-08T20:41:54;7.70;;;4.10;;
26435;SDS011;15351;52.408;16.826;2023-07-08T20:44:26;7.00;;;3.90;;
26435;SDS011;15351;52.408;16.826;2023-07-08T20:46:52;5.20;;;4.00;;
26435;SDS011;15351;52.408;16.826;2023-07-08T20:49:24;8.50;;;4.20;;
26435;SDS011;15351;52.408;16.826;2023-07-08T20:51:50;7.40;;;4.30;;
26435;SDS011;15351;52.408;16.826;2023-07-08T20:54:20;8.40;;;4.20;;
26435;SDS011;15351;52.408;16.826;2023-07-08T20:56:47;6.60;;;4.20;;
26435;SDS011;15351;52.408;16.826;2023-07-08T20:59:17;7.60;;;4.20;;
26435;SDS011;15351;52.408;16.826;2023-07-08T21:01:45;6.20;;;4.00;;
26435;SDS011;15351;52.408;16.826;2023-07-08T21:04:12;6.50;;;4.40;;
26435;SDS011;15351;52.408;16.826;2023-07-08T21:06:39;7.30;;;4.60;;
26435;SDS011;15351;52.408;16.826;2023-07-08T21:09:05;8.70;;;4.50;;
26435;SDS011;15351;52.408;16.826;2023-07-08T21:11:39;7.70;;;4.50;;
26435;SDS011;15351;52.408;16.826;2023-07-08T21:14:06;5.90;;;4.30;;
26435;SDS011;15351;52.408;16.826;2023-07-08T21:16:36;6.10;;;4.20;;
26435;SDS011;15351;52.408;16.826;2023-07-08T21:19:02;9.50;;;4.60;;
26435;SDS011;15351;52.408;16.826;2023-07-08T21:21:36;7.90;;;5.30;;
26435;SDS011;15351;52.408;16.826;2023-07-08T21:24:12;9.00;;;6.20;;
26435;SDS011;15351;52.408;16.826;2023-07-08T21:26:40;7.50;;;5.10;;
26435;SDS011;15351;52.408;16.826;2023-07-08T21:29:11;8.60;;;4.90;;
26435;SDS011;15351;52.408;16.826;2023-07-08T21:31:38;6.20;;;4.40;;
26435;SDS011;15351;52.408;16.826;2023-07-08T21:34:05;7.90;;;4.50;;
26435;SDS011;15351;52.408;16.826;2023-07-08T21:36:35;7.80;;;4.70;;
26435;SDS011;15351;52.408;16.826;2023-07-08T21:44:32;8.50;;;5.50;;
26435;SDS011;15351;52.408;16.826;2023-07-08T21:46:59;6.90;;;5.00;;
26435;SDS011;15351;52.408;16.826;2023-07-08T21:49:26;6.90;;;4.80;;
26435;SDS011;15351;52.408;16.826;2023-07-08T21:51:53;7.40;;;4.80;;
26435;SDS011;15351;52.408;16.826;2023-07-08T21:54:20;6.40;;;4.60;;
26435;SDS011;15351;52.408;16.826;2023-07-08T21:56:46;7.50;;;4.10;;
26435;SDS011;15351;52.408;16.826;2023-07-08T21:59:16;8.60;;;4.40;;
26435;SDS011;15351;52.408;16.826;2023-07-08T22:01:48;6.90;;;4.50;;
26435;SDS011;15351;52.408;16.826;2023-07-08T22:04:19;8.50;;;4.60;;
26435;SDS011;15351;52.408;16.826;2023-07-08T22:06:57;6.10;;;4.40;;
26435;SDS011;15351;52.408;16.826;2023-07-08T22:09:28;5.20;;;4.20;;
26435;SDS011;15351;52.408;16.826;2023-07-08T22:12:12;7.70;;;4.50;;
26435;SDS011;15351;52.408;16.826;2023-07-08T22:14:40;6.80;;;4.70;;
26435;SDS011;15351;52.408;16.826;2023-07-08T22:17:12;7.40;;;4.60;;
26435;SDS011;15351;52.408;16.826;2023-07-08T22:19:45;10.90;;;4.70;;
26435;SDS011;15351;52.408;16.826;2023-07-08T22:22:17;7.00;;;4.60;;
26435;SDS011;15351;52.408;16.826;2023-07-08T22:24:51;9.10;;;4.90;;
26435;SDS011;15351;52.408;16.826;2023-07-08T22:27:28;6.50;;;5.10;;
26435;SDS011;15351;52.408;16.826;2023-07-08T22:29:59;7.90;;;4.60;;
26435;SDS011;15351;52.408;16.826;2023-07-08T22:32:33;8.20;;;4.70;;
26435;SDS011;15351;52.408;16.826;2023-07-08T22:35:15;7.10;;;4.60;;
26435;SDS011;15351;52.408;16.826;2023-07-08T22:37:51;7.60;;;4.60;;
26435;SDS011;15351;52.408;16.826;2023-07-08T22:40:27;8.20;;;4.60;;
26435;SDS011;15351;52.408;16.826;2023-07-08T22:43:00;8.40;;;4.70;;
26435;SDS011;15351;52.408;16.826;2023-07-08T22:45:30;8.70;;;4.80;;
26435;SDS011;15351;52.408;16.826;2023-07-08T22:48:00;8.40;;;4.60;;
26435;SDS011;15351;52.408;16.826;2023-07-08T22:50:34;8.00;;;4.80;;
26435;SDS011;15351;52.408;16.826;2023-07-08T22:53:17;8.00;;;4.70;;
26435;SDS011;15351;52.408;16.826;2023-07-08T22:55:47;9.70;;;5.00;;
26435;SDS011;15351;52.408;16.826;2023-07-08T22:58:22;8.90;;;4.80;;
26435;SDS011;15351;52.408;16.826;2023-07-08T23:00:51;8.90;;;5.10;;
26435;SDS011;15351;52.408;16.826;2023-07-08T23:03:23;9.00;;;4.70;;
26435;SDS011;15351;52.408;16.826;2023-07-08T23:05:58;7.40;;;4.80;;
26435;SDS011;15351;52.408;16.826;2023-07-08T23:08:39;6.60;;;5.00;;
26435;SDS011;15351;52.408;16.826;2023-07-08T23:11:39;6.80;;;5.00;;
26435;SDS011;15351;52.408;16.826;2023-07-08T23:14:08;7.60;;;4.80;;
26435;SDS011;15351;52.408;16.826;2023-07-08T23:16:57;9.00;;;4.90;;
26435;SDS011;15351;52.408;16.826;2023-07-08T23:22:51;9.10;;;5.30;;
26435;SDS011;15351;52.408;16.826;2023-07-08T23:25:23;8.50;;;4.90;;
26435;SDS011;15351;52.408;16.826;2023-07-08T23:27:50;5.30;;;4.70;;
26435;SDS011;15351;52.408;16.826;2023-07-08T23:30:27;9.40;;;5.10;;
26435;SDS011;15351;52.408;16.826;2023-07-08T23:33:10;5.40;;;4.80;;
26435;SDS011;15351;52.408;16.826;2023-07-08T23:35:57;7.60;;;4.90;;
26435;SDS011;15351;52.408;16.826;2023-07-08T23:38:40;7.30;;;4.90;;
26435;SDS011;15351;52.408;16.826;2023-07-08T23:45:12;7.90;;;5.10;;
26435;SDS011;15351;52.408;16.826;2023-07-08T23:47:41;7.20;;;5.10;;
26435;SDS011;15351;52.408;16.826;2023-07-08T23:50:14;10.90;;;5.50;;
26435;SDS011;15351;52.408;16.826;2023-07-08T23:52:54;8.60;;;5.10;;
26435;SDS011;15351;52.408;16.826;2023-07-08T23:55:25;8.50;;;4.90;;
26435;SDS011;15351;52.408;16.826;2023-07-08T23:58:03;9.90;;;5.10;;
